sensor_id;sensor_type;location;lat;lon;timestamp;P1;durP1;ratioP1;P2;durP2;ratioP2
12208;SDS011;6167;43.080;25.634;2024-02-04T00:02:03;23.23;;;17.43;;
12208;SDS011;6167;43.080;25.634;2024-02-04T00:04:32;27.73;;;19.73;;
12208;SDS011;6167;43.080;25.634;2024-02-04T00:06:59;23.63;;;18.07;;
12208;SDS011;6167;43.080;25.634;2024-02-04T00:09:26;27.10;;;19.00;;
12208;SDS011;6167;43.080;25.634;2024-02-04T00:11:55;23.50;;;18.47;;
12208;SDS011;6167;43.080;25.634;2024-02-04T00:14:23;21.67;;;16.53;;
12208;SDS011;6167;43.080;25.634;2024-02-04T00:16:50;20.03;;;15.93;;
12208;SDS011;6167;43.080;25.634;2024-02-04T00:19:17;20.90;;;16.37;;
12208;SDS011;6167;43.080;25.634;2024-02-04T00:21:44;16.53;;;14.27;;
12208;SDS011;6167;43.080;25.634;2024-02-04T00:24:11;19.17;;;15.00;;
12208;SDS011;6167;43.080;25.634;2024-02-04T00:26:38;17.73;;;14.27;;
12208;SDS011;6167;43.080;25.634;2024-02-04T00:29:06;17.43;;;13.70;;
12208;SDS011;6167;43.080;25.634;2024-02-04T00:31:33;18.13;;;14.83;;
12208;SDS011;6167;43.080;25.634;2024-02-04T00:33:59;16.60;;;13.33;;
12208;SDS011;6167;43.080;25.634;2024-02-04T00:36:26;16.73;;;13.00;;
12208;SDS011;6167;43.080;25.634;2024-02-04T00:38:53;14.63;;;11.93;;
12208;SDS011;6167;43.080;25.634;2024-02-04T00:41:20;15.50;;;12.23;;
12208;SDS011;6167;43.080;25.634;2024-02-04T00:43:47;13.97;;;11.20;;
12208;SDS011;6167;43.080;25.634;2024-02-04T00:46:15;15.43;;;12.50;;
12208;SDS011;6167;43.080;25.634;2024-02-04T00:48:42;17.67;;;12.87;;
12208;SDS011;6167;43.080;25.634;2024-02-04T00:51:09;14.73;;;12.40;;
12208;SDS011;6167;43.080;25.634;2024-02-04T00:53:35;14.87;;;12.50;;
12208;SDS011;6167;43.080;25.634;2024-02-04T00:56:02;16.00;;;13.50;;
12208;SDS011;6167;43.080;25.634;2024-02-04T00:58:30;13.93;;;11.93;;
12208;SDS011;6167;43.080;25.634;2024-02-04T01:00:57;20.03;;;14.27;;
12208;SDS011;6167;43.080;25.634;2024-02-04T01:03:25;17.93;;;13.80;;
12208;SDS011;6167;43.080;25.634;2024-02-04T01:05:51;20.67;;;14.53;;
12208;SDS011;6167;43.080;25.634;2024-02-04T01:08:18;17.13;;;13.47;;
12208;SDS011;6167;43.080;25.634;2024-02-04T01:10:45;17.23;;;14.53;;
12208;SDS011;6167;43.080;25.634;2024-02-04T01:13:12;18.30;;;14.83;;
12208;SDS011;6167;43.080;25.634;2024-02-04T01:15:39;21.00;;;15.30;;
12208;SDS011;6167;43.080;25.634;2024-02-04T01:18:06;22.77;;;15.27;;
12208;SDS011;6167;43.080;25.634;2024-02-04T01:20:34;19.43;;;15.33;;
12208;SDS011;6167;43.080;25.634;2024-02-04T01:23:01;18.20;;;14.00;;
12208;SDS011;6167;43.080;25.634;2024-02-04T01:25:28;18.33;;;14.67;;
12208;SDS011;6167;43.080;25.634;2024-02-04T01:27:55;18.17;;;13.83;;
12208;SDS011;6167;43.080;25.634;2024-02-04T01:30:22;18.33;;;13.03;;
12208;SDS011;6167;43.080;25.634;2024-02-04T01:32:49;16.93;;;13.30;;
12208;SDS011;6167;43.080;25.634;2024-02-04T01:35:15;16.00;;;12.70;;
12208;SDS011;6167;43.080;25.634;2024-02-04T01:37:44;17.67;;;13.77;;
12208;SDS011;6167;43.080;25.634;2024-02-04T01:40:13;14.93;;;12.50;;
12208;SDS011;6167;43.080;25.634;2024-02-04T01:42:40;14.93;;;12.37;;
12208;SDS011;6167;43.080;25.634;2024-02-04T01:45:08;13.60;;;11.23;;
12208;SDS011;6167;43.080;25.634;2024-02-04T01:47:35;12.27;;;9.67;;
12208;SDS011;6167;43.080;25.634;2024-02-04T01:50:02;13.93;;;11.10;;
12208;SDS011;6167;43.080;25.634;2024-02-04T01:52:30;11.00;;;9.57;;
12208;SDS011;6167;43.080;25.634;2024-02-04T01:55:00;13.07;;;10.07;;
12208;SDS011;6167;43.080;25.634;2024-02-04T01:57:30;9.70;;;7.93;;
12208;SDS011;6167;43.080;25.634;2024-02-04T01:59:56;11.97;;;9.10;;
12208;SDS011;6167;43.080;25.634;2024-02-04T02:02:25;10.43;;;8.73;;
12208;SDS011;6167;43.080;25.634;2024-02-04T02:04:52;8.60;;;6.97;;
12208;SDS011;6167;43.080;25.634;2024-02-04T02:07:19;11.03;;;8.50;;
12208;SDS011;6167;43.080;25.634;2024-02-04T02:09:46;9.43;;;7.47;;
12208;SDS011;6167;43.080;25.634;2024-02-04T02:12:16;8.77;;;7.87;;
12208;SDS011;6167;43.080;25.634;2024-02-04T02:14:50;11.73;;;9.17;;
12208;SDS011;6167;43.080;25.634;2024-02-04T02:17:24;9.87;;;8.20;;
12208;SDS011;6167;43.080;25.634;2024-02-04T02:19:59;10.50;;;8.30;;
12208;SDS011;6167;43.080;25.634;2024-02-04T02:22:36;11.77;;;8.87;;
12208;SDS011;6167;43.080;25.634;2024-02-04T02:25:10;12.43;;;8.60;;
12208;SDS011;6167;43.080;25.634;2024-02-04T02:27:45;14.57;;;10.80;;
12208;SDS011;6167;43.080;25.634;2024-02-04T02:30:13;13.40;;;11.50;;
12208;SDS011;6167;43.080;25.634;2024-02-04T02:32:40;13.03;;;10.50;;
12208;SDS011;6167;43.080;25.634;2024-02-04T02:35:07;10.47;;;9.43;;
12208;SDS011;6167;43.080;25.634;2024-02-04T02:37:36;10.03;;;8.37;;
12208;SDS011;6167;43.080;25.634;2024-02-04T02:40:08;10.20;;;8.10;;
12208;SDS011;6167;43.080;25.634;2024-02-04T02:42:41;9.83;;;8.83;;
12208;SDS011;6167;43.080;25.634;2024-02-04T02:45:09;16.20;;;11.60;;
12208;SDS011;6167;43.080;25.634;2024-02-04T02:50:07;12.90;;;10.37;;
12208;SDS011;6167;43.080;25.634;2024-02-04T02:52:35;12.17;;;9.67;;
12208;SDS011;6167;43.080;25.634;2024-02-04T02:55:02;15.17;;;9.77;;
12208;SDS011;6167;43.080;25.634;2024-02-04T02:57:31;14.60;;;10.90;;
12208;SDS011;6167;43.080;25.634;2024-02-04T02:59:57;17.73;;;12.23;;
12208;SDS011;6167;43.080;25.634;2024-02-04T03:02:24;17.77;;;11.97;;
12208;SDS011;6167;43.080;25.634;2024-02-04T03:04:51;16.40;;;11.33;;
12208;SDS011;6167;43.080;25.634;2024-02-04T03:07:18;12.00;;;9.70;;
12208;SDS011;6167;43.080;25.634;2024-02-04T03:09:45;14.03;;;10.60;;
12208;SDS011;6167;43.080;25.634;2024-02-04T03:12:12;12.63;;;8.03;;
12208;SDS011;6167;43.080;25.634;2024-02-04T03:14:41;7.20;;;6.00;;
12208;SDS011;6167;43.080;25.634;2024-02-04T03:17:07;7.77;;;6.70;;
12208;SDS011;6167;43.080;25.634;2024-02-04T03:19:34;8.13;;;6.60;;
12208;SDS011;6167;43.080;25.634;2024-02-04T03:22:01;7.83;;;6.40;;
12208;SDS011;6167;43.080;25.634;2024-02-04T03:24:28;7.33;;;6.40;;
12208;SDS011;6167;43.080;25.634;2024-02-04T03:26:55;7.87;;;6.40;;
12208;SDS011;6167;43.080;25.634;2024-02-04T03:29:21;8.43;;;7.23;;
12208;SDS011;6167;43.080;25.634;2024-02-04T03:31:50;10.43;;;8.30;;
12208;SDS011;6167;43.080;25.634;2024-02-04T03:34:16;8.67;;;7.00;;
12208;SDS011;6167;43.080;25.634;2024-02-04T03:36:43;8.13;;;6.50;;
12208;SDS011;6167;43.080;25.634;2024-02-04T03:39:10;5.97;;;4.90;;
12208;SDS011;6167;43.080;25.634;2024-02-04T03:41:37;5.80;;;5.30;;
12208;SDS011;6167;43.080;25.634;2024-02-04T03:44:04;6.13;;;5.17;;
12208;SDS011;6167;43.080;25.634;2024-02-04T03:46:30;6.33;;;5.00;;
12208;SDS011;6167;43.080;25.634;2024-02-04T03:48:59;4.30;;;3.90;;
12208;SDS011;6167;43.080;25.634;2024-02-04T03:51:26;4.57;;;3.83;;
12208;SDS011;6167;43.080;25.634;2024-02-04T03:53:52;3.57;;;3.27;;
12208;SDS011;6167;43.080;25.634;2024-02-04T03:56:19;4.00;;;3.53;;
12208;SDS011;6167;43.080;25.634;2024-02-04T03:58:46;3.40;;;3.10;;
12208;SDS011;6167;43.080;25.634;2024-02-04T04:01:13;3.67;;;3.37;;
12208;SDS011;6167;43.080;25.634;2024-02-04T04:03:40;4.33;;;3.03;;
12208;SDS011;6167;43.080;25.634;2024-02-04T04:06:08;3.93;;;3.17;;
12208;SDS011;6167;43.080;25.634;2024-02-04T04:08:35;3.70;;;3.37;;
12208;SDS011;6167;43.080;25.634;2024-02-04T04:11:02;3.40;;;3.10;;
12208;SDS011;6167;43.080;25.634;2024-02-04T04:13:29;3.40;;;3.10;;
12208;SDS011;6167;43.080;25.634;2024-02-04T04:15:57;5.73;;;3.80;;
12208;SDS011;6167;43.080;25.634;2024-02-04T04:18:24;4.03;;;3.07;;
12208;SDS011;6167;43.080;25.634;2024-02-04T04:20:51;3.50;;;3.20;;
12208;SDS011;6167;43.080;25.634;2024-02-04T04:23:19;3.23;;;2.93;;
12208;SDS011;6167;43.080;25.634;2024-02-04T04:25:46;3.17;;;2.90;;
12208;SDS011;6167;43.080;25.634;2024-02-04T04:28:12;3.60;;;3.03;;
12208;SDS011;6167;43.080;25.634;2024-02-04T04:30:39;3.00;;;2.70;;
12208;SDS011;6167;43.080;25.634;2024-02-04T04:33:06;2.80;;;2.60;;
12208;SDS011;6167;43.080;25.634;2024-02-04T04:35:33;3.00;;;2.70;;
12208;SDS011;6167;43.080;25.634;2024-02-04T04:38:00;2.70;;;2.50;;
12208;SDS011;6167;43.080;25.634;2024-02-04T04:40:28;3.17;;;2.87;;
12208;SDS011;6167;43.080;25.634;2024-02-04T04:42:55;3.23;;;2.87;;
12208;SDS011;6167;43.080;25.634;2024-02-04T04:45:22;3.20;;;2.90;;
12208;SDS011;6167;43.080;25.634;2024-02-04T04:47:48;3.23;;;2.90;;
12208;SDS011;6167;43.080;25.634;2024-02-04T04:50:15;2.60;;;2.40;;
12208;SDS011;6167;43.080;25.634;2024-02-04T04:52:42;3.37;;;3.00;;
12208;SDS011;6167;43.080;25.634;2024-02-04T04:55:09;3.03;;;2.83;;
12208;SDS011;6167;43.080;25.634;2024-02-04T04:57:37;3.27;;;2.97;;
12208;SDS011;6167;43.080;25.634;2024-02-04T05:00:05;2.90;;;2.60;;
12208;SDS011;6167;43.080;25.634;2024-02-04T05:02:35;3.07;;;2.83;;
12208;SDS011;6167;43.080;25.634;2024-02-04T05:05:01;3.13;;;2.87;;
12208;SDS011;6167;43.080;25.634;2024-02-04T05:07:28;2.83;;;2.53;;
12208;SDS011;6167;43.080;25.634;2024-02-04T05:09:55;3.20;;;3.00;;
12208;SDS011;6167;43.080;25.634;2024-02-04T05:12:22;2.73;;;2.53;;
12208;SDS011;6167;43.080;25.634;2024-02-04T05:14:50;4.33;;;2.73;;
12208;SDS011;6167;43.080;25.634;2024-02-04T05:17:17;3.00;;;2.70;;
12208;SDS011;6167;43.080;25.634;2024-02-04T05:19:44;2.87;;;2.67;;
12208;SDS011;6167;43.080;25.634;2024-02-04T05:22:11;3.53;;;2.80;;
12208;SDS011;6167;43.080;25.634;2024-02-04T05:24:37;3.53;;;2.70;;
12208;SDS011;6167;43.080;25.634;2024-02-04T05:27:04;2.70;;;2.50;;
12208;SDS011;6167;43.080;25.634;2024-02-04T05:29:31;3.30;;;3.00;;
12208;SDS011;6167;43.080;25.634;2024-02-04T05:31:59;2.80;;;2.60;;
12208;SDS011;6167;43.080;25.634;2024-02-04T05:34:26;3.17;;;2.87;;
12208;SDS011;6167;43.080;25.634;2024-02-04T05:36:55;3.43;;;2.47;;
12208;SDS011;6167;43.080;25.634;2024-02-04T05:39:22;2.90;;;2.60;;
12208;SDS011;6167;43.080;25.634;2024-02-04T05:41:49;2.80;;;2.60;;
12208;SDS011;6167;43.080;25.634;2024-02-04T05:44:16;2.60;;;2.40;;
12208;SDS011;6167;43.080;25.634;2024-02-04T05:46:43;2.60;;;2.40;;
12208;SDS011;6167;43.080;25.634;2024-02-04T05:49:12;3.17;;;2.57;;
12208;SDS011;6167;43.080;25.634;2024-02-04T05:51:39;3.47;;;2.63;;
12208;SDS011;6167;43.080;25.634;2024-02-04T05:54:06;3.10;;;2.80;;
12208;SDS011;6167;43.080;25.634;2024-02-04T05:56:34;3.97;;;2.73;;
12208;SDS011;6167;43.080;25.634;2024-02-04T05:59:01;3.13;;;2.50;;
12208;SDS011;6167;43.080;25.634;2024-02-04T06:01:28;3.00;;;2.70;;
12208;SDS011;6167;43.080;25.634;2024-02-04T06:03:54;3.73;;;2.63;;
12208;SDS011;6167;43.080;25.634;2024-02-04T06:06:23;3.03;;;2.60;;
12208;SDS011;6167;43.080;25.634;2024-02-04T06:08:49;3.67;;;2.87;;
12208;SDS011;6167;43.080;25.634;2024-02-04T06:11:16;3.10;;;2.90;;
12208;SDS011;6167;43.080;25.634;2024-02-04T06:13:44;3.13;;;2.87;;
12208;SDS011;6167;43.080;25.634;2024-02-04T06:16:11;4.17;;;3.77;;
12208;SDS011;6167;43.080;25.634;2024-02-04T06:18:38;3.73;;;3.43;;
12208;SDS011;6167;43.080;25.634;2024-02-04T06:21:05;4.27;;;3.77;;
12208;SDS011;6167;43.080;25.634;2024-02-04T06:23:33;5.30;;;4.17;;
12208;SDS011;6167;43.080;25.634;2024-02-04T06:26:00;5.50;;;3.83;;
12208;SDS011;6167;43.080;25.634;2024-02-04T06:28:27;4.03;;;3.63;;
12208;SDS011;6167;43.080;25.634;2024-02-04T06:30:54;3.90;;;3.50;;
12208;SDS011;6167;43.080;25.634;2024-02-04T06:33:21;4.00;;;3.40;;
12208;SDS011;6167;43.080;25.634;2024-02-04T06:35:49;4.30;;;3.50;;
12208;SDS011;6167;43.080;25.634;2024-02-04T06:38:16;4.07;;;3.37;;
12208;SDS011;6167;43.080;25.634;2024-02-04T06:40:45;5.40;;;3.33;;
12208;SDS011;6167;43.080;25.634;2024-02-04T06:43:11;3.80;;;3.40;;
12208;SDS011;6167;43.080;25.634;2024-02-04T06:45:38;4.17;;;3.20;;
12208;SDS011;6167;43.080;25.634;2024-02-04T06:48:06;3.57;;;3.27;;
12208;SDS011;6167;43.080;25.634;2024-02-04T06:50:35;5.07;;;3.40;;
12208;SDS011;6167;43.080;25.634;2024-02-04T06:53:02;5.03;;;3.50;;
12208;SDS011;6167;43.080;25.634;2024-02-04T06:55:30;3.90;;;3.37;;
12208;SDS011;6167;43.080;25.634;2024-02-04T06:57:58;3.87;;;3.47;;
12208;SDS011;6167;43.080;25.634;2024-02-04T07:00:25;3.60;;;3.30;;
12208;SDS011;6167;43.080;25.634;2024-02-04T07:02:51;3.97;;;3.20;;
12208;SDS011;6167;43.080;25.634;2024-02-04T07:05:18;4.23;;;3.27;;
12208;SDS011;6167;43.080;25.634;2024-02-04T07:07:47;3.83;;;2.90;;
12208;SDS011;6167;43.080;25.634;2024-02-04T07:10:14;3.97;;;3.20;;
12208;SDS011;6167;43.080;25.634;2024-02-04T07:12:41;3.50;;;3.20;;
12208;SDS011;6167;43.080;25.634;2024-02-04T07:15:09;3.60;;;3.20;;
12208;SDS011;6167;43.080;25.634;2024-02-04T07:17:36;3.17;;;2.87;;
12208;SDS011;6167;43.080;25.634;2024-02-04T07:20:03;4.43;;;3.03;;
12208;SDS011;6167;43.080;25.634;2024-02-04T07:22:32;3.47;;;3.17;;
12208;SDS011;6167;43.080;25.634;2024-02-04T07:25:00;4.37;;;3.40;;
12208;SDS011;6167;43.080;25.634;2024-02-04T07:27:27;3.70;;;3.40;;
12208;SDS011;6167;43.080;25.634;2024-02-04T07:29:54;3.80;;;3.30;;
12208;SDS011;6167;43.080;25.634;2024-02-04T07:32:24;3.50;;;3.20;;
12208;SDS011;6167;43.080;25.634;2024-02-04T07:34:51;3.60;;;3.30;;
12208;SDS011;6167;43.080;25.634;2024-02-04T07:37:17;4.17;;;3.53;;
12208;SDS011;6167;43.080;25.634;2024-02-04T07:39:44;4.63;;;3.40;;
12208;SDS011;6167;43.080;25.634;2024-02-04T07:42:11;4.37;;;3.07;;
12208;SDS011;6167;43.080;25.634;2024-02-04T07:44:38;3.93;;;3.53;;
12208;SDS011;6167;43.080;25.634;2024-02-04T07:47:05;5.30;;;3.57;;
12208;SDS011;6167;43.080;25.634;2024-02-04T07:49:33;4.20;;;3.77;;
12208;SDS011;6167;43.080;25.634;2024-02-04T07:52:00;4.57;;;3.90;;
12208;SDS011;6167;43.080;25.634;2024-02-04T07:54:27;4.50;;;4.00;;
12208;SDS011;6167;43.080;25.634;2024-02-04T07:56:53;4.00;;;3.70;;
12208;SDS011;6167;43.080;25.634;2024-02-04T07:59:20;4.47;;;3.70;;
12208;SDS011;6167;43.080;25.634;2024-02-04T08:01:47;4.73;;;3.83;;
12208;SDS011;6167;43.080;25.634;2024-02-04T08:04:14;3.93;;;3.40;;
12208;SDS011;6167;43.080;25.634;2024-02-04T08:06:42;4.03;;;3.13;;
12208;SDS011;6167;43.080;25.634;2024-02-04T08:09:09;4.00;;;3.37;;
12208;SDS011;6167;43.080;25.634;2024-02-04T08:11:37;4.00;;;3.60;;
12208;SDS011;6167;43.080;25.634;2024-02-04T08:14:03;3.80;;;3.40;;
12208;SDS011;6167;43.080;25.634;2024-02-04T08:16:30;4.17;;;3.77;;
12208;SDS011;6167;43.080;25.634;2024-02-04T08:18:57;6.53;;;3.90;;
12208;SDS011;6167;43.080;25.634;2024-02-04T08:21:24;4.27;;;3.60;;
12208;SDS011;6167;43.080;25.634;2024-02-04T08:23:53;4.23;;;3.70;;
12208;SDS011;6167;43.080;25.634;2024-02-04T08:26:20;4.27;;;3.70;;
12208;SDS011;6167;43.080;25.634;2024-02-04T08:28:47;5.23;;;3.50;;
12208;SDS011;6167;43.080;25.634;2024-02-04T08:31:13;3.80;;;3.40;;
12208;SDS011;6167;43.080;25.634;2024-02-04T08:33:41;3.93;;;3.50;;
12208;SDS011;6167;43.080;25.634;2024-02-04T08:36:08;3.93;;;3.50;;
12208;SDS011;6167;43.080;25.634;2024-02-04T08:38:35;4.87;;;3.30;;
12208;SDS011;6167;43.080;25.634;2024-02-04T08:41:04;4.43;;;3.33;;
12208;SDS011;6167;43.080;25.634;2024-02-04T08:43:30;3.70;;;3.20;;
12208;SDS011;6167;43.080;25.634;2024-02-04T08:45:57;3.77;;;3.40;;
12208;SDS011;6167;43.080;25.634;2024-02-04T08:48:23;6.13;;;3.50;;
12208;SDS011;6167;43.080;25.634;2024-02-04T08:50:50;5.30;;;3.67;;
12208;SDS011;6167;43.080;25.634;2024-02-04T08:53:19;3.50;;;3.20;;
12208;SDS011;6167;43.080;25.634;2024-02-04T08:55:46;5.20;;;3.27;;
12208;SDS011;6167;43.080;25.634;2024-02-04T08:58:14;3.70;;;3.30;;
12208;SDS011;6167;43.080;25.634;2024-02-04T09:00:41;3.57;;;3.23;;
12208;SDS011;6167;43.080;25.634;2024-02-04T09:03:08;3.40;;;3.10;;
12208;SDS011;6167;43.080;25.634;2024-02-04T09:05:35;3.77;;;3.30;;
12208;SDS011;6167;43.080;25.634;2024-02-04T09:08:02;5.60;;;3.40;;
12208;SDS011;6167;43.080;25.634;2024-02-04T09:10:29;3.40;;;3.10;;
12208;SDS011;6167;43.080;25.634;2024-02-04T09:12:56;4.10;;;3.73;;
12208;SDS011;6167;43.080;25.634;2024-02-04T09:15:24;4.53;;;3.57;;
12208;SDS011;6167;43.080;25.634;2024-02-04T09:17:51;4.60;;;3.50;;
12208;SDS011;6167;43.080;25.634;2024-02-04T09:20:17;4.03;;;3.63;;
12208;SDS011;6167;43.080;25.634;2024-02-04T09:22:44;3.80;;;3.50;;
12208;SDS011;6167;43.080;25.634;2024-02-04T09:25:11;5.30;;;3.80;;
12208;SDS011;6167;43.080;25.634;2024-02-04T09:27:38;4.40;;;3.73;;
12208;SDS011;6167;43.080;25.634;2024-02-04T09:30:06;3.67;;;3.37;;
12208;SDS011;6167;43.080;25.634;2024-02-04T09:32:34;3.97;;;3.53;;
12208;SDS011;6167;43.080;25.634;2024-02-04T09:35:01;4.97;;;3.40;;
12208;SDS011;6167;43.080;25.634;2024-02-04T09:37:28;4.27;;;3.43;;
12208;SDS011;6167;43.080;25.634;2024-02-04T09:39:55;4.60;;;3.50;;
12208;SDS011;6167;43.080;25.634;2024-02-04T09:42:22;7.37;;;4.80;;
12208;SDS011;6167;43.080;25.634;2024-02-04T09:44:49;5.73;;;4.23;;
12208;SDS011;6167;43.080;25.634;2024-02-04T09:47:16;3.83;;;3.53;;
12208;SDS011;6167;43.080;25.634;2024-02-04T09:49:45;3.90;;;3.60;;
12208;SDS011;6167;43.080;25.634;2024-02-04T09:52:12;4.13;;;3.17;;
12208;SDS011;6167;43.080;25.634;2024-02-04T09:54:43;4.00;;;3.27;;
12208;SDS011;6167;43.080;25.634;2024-02-04T09:57:11;3.67;;;3.37;;
12208;SDS011;6167;43.080;25.634;2024-02-04T09:59:40;4.47;;;3.40;;
12208;SDS011;6167;43.080;25.634;2024-02-04T10:02:08;3.67;;;3.37;;
12208;SDS011;6167;43.080;25.634;2024-02-04T10:04:36;5.20;;;3.67;;
12208;SDS011;6167;43.080;25.634;2024-02-04T10:07:04;3.57;;;3.20;;
12208;SDS011;6167;43.080;25.634;2024-02-04T10:09:31;6.37;;;4.10;;
12208;SDS011;6167;43.080;25.634;2024-02-04T10:11:58;3.80;;;3.40;;
12208;SDS011;6167;43.080;25.634;2024-02-04T10:14:28;3.50;;;3.20;;
12208;SDS011;6167;43.080;25.634;2024-02-04T10:16:56;4.23;;;3.63;;
12208;SDS011;6167;43.080;25.634;2024-02-04T10:19:24;3.50;;;3.10;;
12208;SDS011;6167;43.080;25.634;2024-02-04T10:21:57;3.80;;;3.23;;
12208;SDS011;6167;43.080;25.634;2024-02-04T10:24:26;3.23;;;2.93;;
12208;SDS011;6167;43.080;25.634;2024-02-04T10:26:53;3.30;;;3.00;;
12208;SDS011;6167;43.080;25.634;2024-02-04T10:29:21;3.10;;;2.90;;
12208;SDS011;6167;43.080;25.634;2024-02-04T10:31:52;3.50;;;3.20;;
12208;SDS011;6167;43.080;25.634;2024-02-04T10:34:26;4.90;;;3.17;;
12208;SDS011;6167;43.080;25.634;2024-02-04T10:36:55;3.10;;;2.80;;
12208;SDS011;6167;43.080;25.634;2024-02-04T10:39:22;3.43;;;3.00;;
12208;SDS011;6167;43.080;25.634;2024-02-04T10:41:51;3.37;;;3.07;;
12208;SDS011;6167;43.080;25.634;2024-02-04T10:44:20;4.20;;;3.23;;
12208;SDS011;6167;43.080;25.634;2024-02-04T10:46:48;4.10;;;3.17;;
12208;SDS011;6167;43.080;25.634;2024-02-04T10:49:17;3.10;;;2.80;;
12208;SDS011;6167;43.080;25.634;2024-02-04T10:51:45;3.30;;;3.00;;
12208;SDS011;6167;43.080;25.634;2024-02-04T10:54:14;5.40;;;3.03;;
12208;SDS011;6167;43.080;25.634;2024-02-04T10:56:43;3.37;;;3.00;;
12208;SDS011;6167;43.080;25.634;2024-02-04T10:59:13;2.90;;;2.70;;
12208;SDS011;6167;43.080;25.634;2024-02-04T11:01:43;3.70;;;2.70;;
12208;SDS011;6167;43.080;25.634;2024-02-04T11:04:10;3.47;;;3.17;;
12208;SDS011;6167;43.080;25.634;2024-02-04T11:06:37;4.67;;;3.00;;
12208;SDS011;6167;43.080;25.634;2024-02-04T11:09:07;4.33;;;2.90;;
12208;SDS011;6167;43.080;25.634;2024-02-04T11:11:36;3.87;;;3.00;;
12208;SDS011;6167;43.080;25.634;2024-02-04T11:14:04;3.73;;;2.80;;
12208;SDS011;6167;43.080;25.634;2024-02-04T11:16:44;3.80;;;3.10;;
12208;SDS011;6167;43.080;25.634;2024-02-04T11:19:40;2.80;;;2.60;;
12208;SDS011;6167;43.080;25.634;2024-02-04T11:22:44;3.47;;;3.00;;
12208;SDS011;6167;43.080;25.634;2024-02-04T11:25:29;2.87;;;2.67;;
12208;SDS011;6167;43.080;25.634;2024-02-04T11:28:08;2.90;;;2.57;;
12208;SDS011;6167;43.080;25.634;2024-02-04T11:30:35;3.30;;;2.70;;
12208;SDS011;6167;43.080;25.634;2024-02-04T11:33:04;2.93;;;2.70;;
12208;SDS011;6167;43.080;25.634;2024-02-04T11:35:32;3.80;;;2.80;;
12208;SDS011;6167;43.080;25.634;2024-02-04T11:38:00;2.97;;;2.67;;
12208;SDS011;6167;43.080;25.634;2024-02-04T11:40:30;3.00;;;2.70;;
12208;SDS011;6167;43.080;25.634;2024-02-04T11:43:05;3.00;;;2.70;;
12208;SDS011;6167;43.080;25.634;2024-02-04T11:45:32;3.07;;;2.80;;
12208;SDS011;6167;43.080;25.634;2024-02-04T11:48:06;2.70;;;2.50;;
12208;SDS011;6167;43.080;25.634;2024-02-04T11:50:33;2.50;;;2.30;;
12208;SDS011;6167;43.080;25.634;2024-02-04T11:53:06;2.50;;;2.30;;
12208;SDS011;6167;43.080;25.634;2024-02-04T11:55:35;2.50;;;2.30;;
12208;SDS011;6167;43.080;25.634;2024-02-04T11:58:03;2.60;;;2.40;;
12208;SDS011;6167;43.080;25.634;2024-02-04T12:00:31;3.37;;;2.80;;
12208;SDS011;6167;43.080;25.634;2024-02-04T12:02:59;3.10;;;2.37;;
12208;SDS011;6167;43.080;25.634;2024-02-04T12:05:29;2.53;;;2.33;;
12208;SDS011;6167;43.080;25.634;2024-02-04T12:07:59;4.90;;;2.77;;
12208;SDS011;6167;43.080;25.634;2024-02-04T12:10:27;3.13;;;2.70;;
12208;SDS011;6167;43.080;25.634;2024-02-04T12:12:55;3.10;;;2.40;;
12208;SDS011;6167;43.080;25.634;2024-02-04T12:15:23;3.23;;;2.57;;
12208;SDS011;6167;43.080;25.634;2024-02-04T12:17:50;2.67;;;2.47;;
12208;SDS011;6167;43.080;25.634;2024-02-04T12:20:17;8.03;;;3.40;;
12208;SDS011;6167;43.080;25.634;2024-02-04T12:22:45;2.60;;;2.30;;
12208;SDS011;6167;43.080;25.634;2024-02-04T12:25:14;2.80;;;2.60;;
12208;SDS011;6167;43.080;25.634;2024-02-04T12:27:41;2.90;;;2.40;;
12208;SDS011;6167;43.080;25.634;2024-02-04T12:30:08;3.17;;;2.30;;
12208;SDS011;6167;43.080;25.634;2024-02-04T12:32:36;2.77;;;2.47;;
12208;SDS011;6167;43.080;25.634;2024-02-04T12:35:04;3.17;;;2.87;;
12208;SDS011;6167;43.080;25.634;2024-02-04T12:37:32;2.50;;;2.30;;
12208;SDS011;6167;43.080;25.634;2024-02-04T12:40:00;3.43;;;3.07;;
12208;SDS011;6167;43.080;25.634;2024-02-04T12:42:28;3.93;;;2.40;;
12208;SDS011;6167;43.080;25.634;2024-02-04T12:44:56;3.60;;;2.40;;
12208;SDS011;6167;43.080;25.634;2024-02-04T12:47:24;3.60;;;2.27;;
12208;SDS011;6167;43.080;25.634;2024-02-04T12:49:57;3.35;;;2.70;;
12208;SDS011;6167;43.080;25.634;2024-02-04T12:52:25;3.30;;;2.67;;
12208;SDS011;6167;43.080;25.634;2024-02-04T12:54:52;3.03;;;2.72;;
12208;SDS011;6167;43.080;25.634;2024-02-04T12:57:24;2.78;;;2.50;;
12208;SDS011;6167;43.080;25.634;2024-02-04T12:59:51;3.45;;;2.70;;
12208;SDS011;6167;43.080;25.634;2024-02-04T13:02:18;3.00;;;2.70;;
12208;SDS011;6167;43.080;25.634;2024-02-04T13:04:46;3.20;;;2.80;;
12208;SDS011;6167;43.080;25.634;2024-02-04T13:07:13;2.50;;;2.30;;
12208;SDS011;6167;43.080;25.634;2024-02-04T13:09:42;3.28;;;2.95;;
12208;SDS011;6167;43.080;25.634;2024-02-04T13:12:09;4.63;;;2.70;;
12208;SDS011;6167;43.080;25.634;2024-02-04T13:14:39;3.05;;;2.38;;
12208;SDS011;6167;43.080;25.634;2024-02-04T13:17:05;4.03;;;2.15;;
12208;SDS011;6167;43.080;25.634;2024-02-04T13:19:32;2.30;;;2.10;;
12208;SDS011;6167;43.080;25.634;2024-02-04T13:22:01;3.58;;;2.20;;
12208;SDS011;6167;43.080;25.634;2024-02-04T13:24:28;2.03;;;1.67;;
12208;SDS011;6167;43.080;25.634;2024-02-04T13:26:55;2.60;;;2.30;;
12208;SDS011;6167;43.080;25.634;2024-02-04T13:29:22;2.35;;;2.15;;
12208;SDS011;6167;43.080;25.634;2024-02-04T13:31:50;3.28;;;2.00;;
12208;SDS011;6167;43.080;25.634;2024-02-04T13:34:17;3.78;;;2.40;;
12208;SDS011;6167;43.080;25.634;2024-02-04T13:36:45;3.97;;;2.42;;
12208;SDS011;6167;43.080;25.634;2024-02-04T13:39:12;2.15;;;1.95;;
12208;SDS011;6167;43.080;25.634;2024-02-04T13:41:39;2.83;;;2.17;;
12208;SDS011;6167;43.080;25.634;2024-02-04T13:44:06;2.70;;;2.10;;
12208;SDS011;6167;43.080;25.634;2024-02-04T13:46:33;3.42;;;2.65;;
12208;SDS011;6167;43.080;25.634;2024-02-04T13:49:01;4.55;;;2.13;;
12208;SDS011;6167;43.080;25.634;2024-02-04T13:51:29;3.33;;;2.15;;
12208;SDS011;6167;43.080;25.634;2024-02-04T13:53:55;7.55;;;4.90;;
12208;SDS011;6167;43.080;25.634;2024-02-04T13:56:22;2.88;;;2.40;;
12208;SDS011;6167;43.080;25.634;2024-02-04T13:58:49;3.95;;;3.42;;
12208;SDS011;6167;43.080;25.634;2024-02-04T14:01:16;4.80;;;4.28;;
12208;SDS011;6167;43.080;25.634;2024-02-04T14:03:44;3.83;;;3.42;;
12208;SDS011;6167;43.080;25.634;2024-02-04T14:06:12;3.75;;;3.33;;
12208;SDS011;6167;43.080;25.634;2024-02-04T14:08:39;3.30;;;3.00;;
12208;SDS011;6167;43.080;25.634;2024-02-04T14:11:06;5.13;;;4.20;;
12208;SDS011;6167;43.080;25.634;2024-02-04T14:13:33;4.97;;;3.43;;
12208;SDS011;6167;43.080;25.634;2024-02-04T14:16:00;5.27;;;3.50;;
12208;SDS011;6167;43.080;25.634;2024-02-04T14:18:28;3.77;;;3.47;;
12208;SDS011;6167;43.080;25.634;2024-02-04T14:20:55;2.93;;;2.50;;
12208;SDS011;6167;43.080;25.634;2024-02-04T14:23:23;2.70;;;2.50;;
12208;SDS011;6167;43.080;25.634;2024-02-04T14:25:50;3.70;;;2.50;;
12208;SDS011;6167;43.080;25.634;2024-02-04T14:28:18;3.37;;;2.80;;
12208;SDS011;6167;43.080;25.634;2024-02-04T14:30:45;3.07;;;2.73;;
12208;SDS011;6167;43.080;25.634;2024-02-04T14:33:12;3.20;;;2.90;;
12208;SDS011;6167;43.080;25.634;2024-02-04T14:35:39;2.30;;;2.10;;
12208;SDS011;6167;43.080;25.634;2024-02-04T14:38:06;2.33;;;2.20;;
12208;SDS011;6167;43.080;25.634;2024-02-04T14:40:34;3.07;;;2.23;;
12208;SDS011;6167;43.080;25.634;2024-02-04T14:43:04;2.83;;;2.50;;
12208;SDS011;6167;43.080;25.634;2024-02-04T14:45:30;3.20;;;2.50;;
12208;SDS011;6167;43.080;25.634;2024-02-04T14:47:57;2.57;;;2.30;;
12208;SDS011;6167;43.080;25.634;2024-02-04T14:50:25;3.97;;;2.60;;